createdAt,value
2019-03-29T00:01:26.123Z,5.00
2019-03-29T00:03:54.847Z,5.00
2019-03-29T00:06:24.026Z,5.00
2019-03-29T00:08:52.875Z,5.10
2019-03-29T00:11:22.011Z,5.10
2019-03-29T00:13:50.801Z,5.00
2019-03-29T00:16:19.648Z,4.90
2019-03-29T00:18:48.379Z,4.90
2019-03-29T00:21:17.189Z,4.90
2019-03-29T00:23:46.033Z,4.80
2019-03-29T00:26:14.838Z,4.80
2019-03-29T00:28:43.668Z,4.70
2019-03-29T00:31:13.231Z,4.70
2019-03-29T00:33:42.945Z,4.60
2019-03-29T00:36:12.137Z,4.50
2019-03-29T00:38:41.327Z,4.50
2019-03-29T00:41:10.123Z,4.50
2019-03-29T00:43:38.901Z,4.40
2019-03-29T00:46:07.751Z,4.40
2019-03-29T00:48:36.542Z,4.40
2019-03-29T00:51:05.374Z,4.40
2019-03-29T00:53:34.278Z,4.40
2019-03-29T00:56:03.751Z,4.40
2019-03-29T00:58:32.506Z,4.40
2019-03-29T01:01:01.277Z,4.40
2019-03-29T01:03:30.066Z,4.50
2019-03-29T01:05:58.983Z,4.40
2019-03-29T01:08:27.782Z,4.40
2019-03-29T01:10:56.605Z,4.40
2019-03-29T01:13:25.451Z,4.40
2019-03-29T01:15:54.240Z,4.40
2019-03-29T01:18:23.082Z,4.40
2019-03-29T01:20:51.891Z,4.30
2019-03-29T01:23:21.702Z,4.30
2019-03-29T01:25:50.896Z,4.30
2019-03-29T01:28:20.608Z,4.30
2019-03-29T01:30:49.728Z,4.30
2019-03-29T01:33:18.457Z,4.40
2019-03-29T01:35:47.617Z,4.40
2019-03-29T01:38:22.143Z,4.40
2019-03-29T01:40:46.886Z,4.50
2019-03-29T01:43:15.868Z,4.50
2019-03-29T01:45:46.042Z,4.50
2019-03-29T01:48:14.789Z,4.40
2019-03-29T01:50:43.894Z,4.40
2019-03-29T01:53:12.717Z,4.40
2019-03-29T01:55:41.486Z,4.30
2019-03-29T01:58:10.587Z,4.30
2019-03-29T02:00:40.440Z,4.20
2019-03-29T02:03:10.960Z,4.10
2019-03-29T02:05:40.134Z,4.10
2019-03-29T02:08:08.953Z,4.00
2019-03-29T02:10:37.684Z,3.90
2019-03-29T02:13:07.040Z,3.80
2019-03-29T02:15:37.192Z,3.80
2019-03-29T02:18:06.676Z,3.70
2019-03-29T02:20:35.520Z,3.70
2019-03-29T02:23:04.414Z,3.70
2019-03-29T02:25:33.492Z,3.60
2019-03-29T02:28:02.212Z,3.60
2019-03-29T02:30:32.204Z,3.60
2019-03-29T02:33:01.448Z,3.50
2019-03-29T02:35:30.170Z,3.50
2019-03-29T02:37:59.021Z,3.40
2019-03-29T02:40:27.737Z,3.40
2019-03-29T02:42:56.625Z,3.40
2019-03-29T02:45:25.457Z,3.40
2019-03-29T02:47:54.627Z,3.40
2019-03-29T02:50:23.469Z,3.30
2019-03-29T02:52:52.270Z,3.40
2019-03-29T02:55:21.044Z,3.30
2019-03-29T02:57:49.786Z,3.30
2019-03-29T03:00:18.914Z,3.30
2019-03-29T03:02:48.067Z,3.30
2019-03-29T03:05:17.369Z,3.30
2019-03-29T03:07:47.134Z,3.30
2019-03-29T03:10:16.248Z,3.30
2019-03-29T03:12:45.033Z,3.30
2019-03-29T03:15:14.394Z,3.30
2019-03-29T03:17:45.434Z,3.20
2019-03-29T03:20:15.808Z,3.20
2019-03-29T03:22:44.813Z,3.20
2019-03-29T03:25:14.217Z,3.10
2019-03-29T03:27:43.076Z,3.10
2019-03-29T03:30:13.225Z,3.10
2019-03-29T03:32:41.999Z,3.10
2019-03-29T03:35:11.453Z,3.00
2019-03-29T03:37:40.317Z,3.00
2019-03-29T03:40:09.531Z,2.90
2019-03-29T03:42:38.257Z,2.90
2019-03-29T03:45:08.209Z,2.90
2019-03-29T03:47:38.611Z,2.90
2019-03-29T03:50:07.949Z,2.90
2019-03-29T03:52:36.794Z,2.90
2019-03-29T03:55:06.723Z,2.90
2019-03-29T03:57:38.278Z,2.80
2019-03-29T04:00:08.633Z,2.80
2019-03-29T04:02:37.426Z,2.70
2019-03-29T04:05:07.044Z,2.70
2019-03-29T04:07:35.760Z,2.60
2019-03-29T04:10:06.902Z,2.60
2019-03-29T04:12:35.902Z,2.60
2019-03-29T04:15:05.387Z,2.60
2019-03-29T04:17:34.228Z,2.60
2019-03-29T04:20:03.225Z,2.60
2019-03-29T04:22:32.063Z,2.60
2019-03-29T04:25:00.886Z,2.60
2019-03-29T04:27:29.847Z,2.60
2019-03-29T04:29:58.682Z,2.60
2019-03-29T04:32:27.478Z,2.50
2019-03-29T04:34:56.318Z,2.50
2019-03-29T04:37:25.217Z,2.50
2019-03-29T04:40:06.941Z,2.40
2019-03-29T04:42:24.519Z,2.50
2019-03-29T04:44:53.303Z,2.50
2019-03-29T04:47:22.496Z,2.60
2019-03-29T04:49:51.318Z,2.60
2019-03-29T04:52:20.113Z,2.60
2019-03-29T04:54:49.966Z,2.60
2019-03-29T04:57:18.785Z,2.60
2019-03-29T04:59:47.645Z,2.60
2019-03-29T05:02:16.763Z,2.70
2019-03-29T05:04:45.584Z,2.80
2019-03-29T05:07:14.395Z,2.80
2019-03-29T05:09:43.177Z,2.80
2019-03-29T05:12:11.976Z,2.90
2019-03-29T05:14:40.744Z,3.00
2019-03-29T05:17:09.572Z,2.90
2019-03-29T05:19:38.380Z,2.90
2019-03-29T05:22:07.211Z,2.90
2019-03-29T05:24:36.015Z,2.80
2019-03-29T05:27:04.887Z,2.80
2019-03-29T05:29:33.967Z,2.70
2019-03-29T05:32:02.778Z,2.60
2019-03-29T05:34:31.631Z,2.60
2019-03-29T05:37:00.473Z,2.50
2019-03-29T05:39:29.286Z,2.50
2019-03-29T05:41:58.120Z,2.50
2019-03-29T05:44:28.358Z,2.50
2019-03-29T05:46:57.156Z,2.50
2019-03-29T05:49:25.973Z,2.50
2019-03-29T05:51:54.815Z,2.60
2019-03-29T05:54:23.939Z,2.60
2019-03-29T05:56:52.769Z,2.70
2019-03-29T05:59:21.498Z,2.70
2019-03-29T06:01:50.329Z,2.80
2019-03-29T06:04:19.164Z,2.80
2019-03-29T06:06:47.967Z,2.80
2019-03-29T06:09:16.794Z,2.70
2019-03-29T06:11:45.626Z,2.80
2019-03-29T06:14:14.350Z,2.70
2019-03-29T06:16:43.101Z,2.90
2019-03-29T06:19:11.928Z,3.10
2019-03-29T06:21:40.698Z,3.20
2019-03-29T06:24:09.487Z,3.40
2019-03-29T06:26:38.324Z,3.50
2019-03-29T06:29:07.236Z,3.80
2019-03-29T06:31:36.062Z,4.00
2019-03-29T06:34:04.915Z,4.30
2019-03-29T06:36:34.046Z,4.70
2019-03-29T06:39:04.531Z,5.10
2019-03-29T06:41:33.317Z,5.50
2019-03-29T06:44:02.099Z,5.90
2019-03-29T06:46:30.924Z,6.30
2019-03-29T06:48:59.774Z,6.70
2019-03-29T06:51:28.603Z,7.00
2019-03-29T06:53:57.432Z,7.30
2019-03-29T06:56:26.248Z,7.60
2019-03-29T06:58:55.043Z,7.90
2019-03-29T07:01:23.766Z,8.00
2019-03-29T07:03:52.523Z,8.20
2019-03-29T07:06:21.325Z,8.30
2019-03-29T07:08:50.143Z,8.60
2019-03-29T07:11:18.980Z,8.70
2019-03-29T07:13:57.481Z,8.80
2019-03-29T07:16:18.273Z,9.00
2019-03-29T07:18:47.399Z,9.20
2019-03-29T07:21:21.877Z,9.60
2019-03-29T07:23:46.736Z,9.80
2019-03-29T07:26:15.614Z,10.10
2019-03-29T07:28:44.437Z,10.40
2019-03-29T07:31:13.362Z,10.80
2019-03-29T07:33:42.200Z,10.90
2019-03-29T07:36:11.010Z,10.90
2019-03-29T07:38:39.839Z,10.90
2019-03-29T07:41:08.647Z,10.90
2019-03-29T07:43:37.825Z,10.70
2019-03-29T07:46:06.627Z,10.60
2019-03-29T07:48:35.471Z,10.30
2019-03-29T07:51:04.277Z,10.10
2019-03-29T07:53:33.120Z,10.10
2019-03-29T07:56:01.849Z,10.10
2019-03-29T07:58:30.768Z,10.00
2019-03-29T08:00:59.626Z,10.00
2019-03-29T08:03:28.411Z,9.80
2019-03-29T08:05:57.210Z,9.80
2019-03-29T08:08:32.009Z,9.70
2019-03-29T08:10:57.130Z,9.60
2019-03-29T08:13:25.986Z,9.60
2019-03-29T08:15:54.899Z,9.50
2019-03-29T08:18:24.007Z,9.50
2019-03-29T08:20:52.727Z,9.60
2019-03-29T08:23:21.586Z,9.70
2019-03-29T08:25:51.362Z,9.70
2019-03-29T08:28:20.127Z,9.80
2019-03-29T08:30:49.202Z,10.00
2019-03-29T08:33:18.231Z,10.20
2019-03-29T08:35:48.507Z,10.30
2019-03-29T08:38:17.333Z,10.50
2019-03-29T08:40:46.170Z,10.80
2019-03-29T08:43:15.004Z,11.00
2019-03-29T08:45:43.805Z,11.10
2019-03-29T08:48:14.663Z,11.20
2019-03-29T08:50:43.366Z,11.30
2019-03-29T08:53:12.215Z,11.40
2019-03-29T08:55:46.157Z,11.40
2019-03-29T08:58:12.471Z,11.50
2019-03-29T09:00:41.689Z,11.50
2019-03-29T09:03:10.454Z,11.60
2019-03-29T09:05:39.431Z,11.50
2019-03-29T09:08:08.430Z,11.60
2019-03-29T09:10:37.230Z,11.50
2019-03-29T09:13:06.083Z,11.60
2019-03-29T09:15:34.857Z,11.60
2019-03-29T09:18:03.781Z,11.60
2019-03-29T09:20:34.521Z,11.50
2019-03-29T09:23:03.094Z,11.50
2019-03-29T09:25:31.889Z,11.50
2019-03-29T09:28:00.696Z,11.60
2019-03-29T09:30:29.475Z,11.70
2019-03-29T09:32:58.220Z,11.80
2019-03-29T09:35:27.008Z,11.90
2019-03-29T09:37:56.636Z,12.10
2019-03-29T09:40:25.577Z,12.20
2019-03-29T09:43:06.601Z,12.20
2019-03-29T09:45:25.124Z,12.30
2019-03-29T09:47:55.874Z,12.40
2019-03-29T09:50:24.323Z,12.40
2019-03-29T09:52:53.131Z,12.50
2019-03-29T09:55:22.074Z,12.60
2019-03-29T09:57:50.885Z,12.70
2019-03-29T10:00:23.193Z,12.80
2019-03-29T10:02:50.397Z,12.80
2019-03-29T10:05:20.231Z,12.80
2019-03-29T10:07:49.756Z,12.80
2019-03-29T10:10:18.648Z,12.90
2019-03-29T10:12:47.330Z,12.90
2019-03-29T10:15:16.455Z,12.80
2019-03-29T10:17:45.536Z,12.80
2019-03-29T10:20:14.364Z,12.90
2019-03-29T10:22:43.213Z,12.90
2019-03-29T10:25:19.635Z,12.80
2019-03-29T10:27:42.735Z,12.90
2019-03-29T10:30:12.182Z,13.00
2019-03-29T10:32:41.065Z,13.10
2019-03-29T10:35:10.032Z,13.30
2019-03-29T10:37:38.869Z,13.30
2019-03-29T10:40:08.170Z,13.20
2019-03-29T10:42:39.766Z,13.20
2019-03-29T10:45:08.423Z,13.30
2019-03-29T10:47:43.647Z,13.40
2019-03-29T10:50:08.014Z,13.50
2019-03-29T10:52:36.854Z,13.70
2019-03-29T10:55:06.257Z,13.90
2019-03-29T10:57:34.993Z,13.90
2019-03-29T11:00:08.813Z,14.00
2019-03-29T11:02:37.612Z,14.00
2019-03-29T11:05:07.113Z,14.10
2019-03-29T11:07:35.956Z,14.00
2019-03-29T11:10:06.487Z,13.90
2019-03-29T11:12:35.329Z,13.80
2019-03-29T11:15:06.976Z,13.60
2019-03-29T11:17:36.043Z,13.50
2019-03-29T11:20:05.290Z,13.40
2019-03-29T11:22:34.140Z,13.30
2019-03-29T11:25:03.052Z,13.30
2019-03-29T11:27:31.819Z,13.50
2019-03-29T11:30:00.709Z,13.70
2019-03-29T11:32:31.029Z,13.90
2019-03-29T11:35:00.392Z,14.10
2019-03-29T11:37:29.217Z,14.00
2019-03-29T11:39:58.006Z,14.10
2019-03-29T11:42:27.141Z,14.20
2019-03-29T11:44:55.961Z,14.30
2019-03-29T11:47:24.809Z,14.40
2019-03-29T11:49:53.629Z,14.50
2019-03-29T11:52:22.814Z,14.50
2019-03-29T11:54:51.651Z,14.60
2019-03-29T11:57:20.781Z,14.70
2019-03-29T11:59:49.617Z,14.80
2019-03-29T12:02:30.589Z,14.80
2019-03-29T12:04:48.932Z,14.80
2019-03-29T12:07:17.691Z,14.60
2019-03-29T12:09:46.544Z,14.50
2019-03-29T12:12:15.572Z,14.70
2019-03-29T12:14:44.428Z,14.80
2019-03-29T12:17:13.263Z,14.80
2019-03-29T12:19:41.998Z,14.90
2019-03-29T12:22:10.883Z,15.00
2019-03-29T12:24:39.714Z,15.00
2019-03-29T12:27:08.528Z,14.90
2019-03-29T12:29:37.372Z,14.90
2019-03-29T12:32:07.250Z,14.90
2019-03-29T12:34:37.256Z,14.90
2019-03-29T12:37:05.962Z,14.90
2019-03-29T12:39:34.763Z,14.80
2019-03-29T12:42:03.619Z,14.80
2019-03-29T12:44:32.472Z,14.80
2019-03-29T12:47:01.291Z,14.70
2019-03-29T12:49:30.148Z,14.60
2019-03-29T12:51:58.899Z,14.60
2019-03-29T12:54:27.722Z,14.70
2019-03-29T12:56:56.550Z,14.60
2019-03-29T12:59:25.565Z,14.60
2019-03-29T13:01:54.397Z,14.60
2019-03-29T13:04:23.364Z,14.50
2019-03-29T13:06:52.202Z,14.40
2019-03-29T13:09:21.018Z,14.50
2019-03-29T13:11:50.891Z,14.50
2019-03-29T13:14:19.859Z,14.60
2019-03-29T13:16:48.746Z,14.50
2019-03-29T13:19:17.588Z,14.50
2019-03-29T13:21:46.380Z,14.40
2019-03-29T13:24:16.156Z,14.30
2019-03-29T13:26:45.181Z,14.30
2019-03-29T13:29:14.215Z,14.30
2019-03-29T13:31:43.037Z,14.20
2019-03-29T13:34:11.871Z,14.20
2019-03-29T13:36:40.591Z,14.30
2019-03-29T13:39:09.850Z,14.20
2019-03-29T13:41:38.695Z,14.20
2019-03-29T13:44:07.506Z,14.20
2019-03-29T13:46:36.344Z,14.30
2019-03-29T13:49:05.285Z,14.30
2019-03-29T13:51:34.010Z,14.20
2019-03-29T13:54:03.105Z,14.20
2019-03-29T13:56:32.190Z,14.20
2019-03-29T13:59:01.025Z,14.20
2019-03-29T14:01:31.875Z,14.10
2019-03-29T14:04:00.677Z,14.20
2019-03-29T14:06:29.447Z,14.20
2019-03-29T14:08:58.583Z,14.20
2019-03-29T14:11:27.410Z,14.20
2019-03-29T14:13:56.243Z,14.30
2019-03-29T14:16:27.222Z,14.50
2019-03-29T14:18:56.070Z,14.60
2019-03-29T14:21:24.882Z,14.60
2019-03-29T14:23:53.643Z,14.70
2019-03-29T14:26:22.404Z,14.80
2019-03-29T14:28:51.194Z,14.90
2019-03-29T14:31:20.327Z,14.90
2019-03-29T14:33:49.050Z,14.90
2019-03-29T14:36:17.946Z,14.70
2019-03-29T14:38:46.740Z,14.60
2019-03-29T14:41:15.558Z,14.70
2019-03-29T14:43:45.304Z,14.80
2019-03-29T14:46:14.176Z,14.80
2019-03-29T14:48:42.987Z,14.90
2019-03-29T14:51:13.232Z,14.90
2019-03-29T14:53:43.172Z,14.90
2019-03-29T14:56:12.002Z,14.90
2019-03-29T14:58:41.198Z,14.90
2019-03-29T15:01:10.284Z,14.90
2019-03-29T15:03:39.122Z,14.90
2019-03-29T15:06:08.267Z,15.10
2019-03-29T15:08:37.101Z,15.00
2019-03-29T15:11:06.239Z,14.90
2019-03-29T15:13:35.115Z,14.90
2019-03-29T15:16:05.530Z,14.90
2019-03-29T15:18:34.347Z,14.80
2019-03-29T15:21:03.206Z,14.80
2019-03-29T15:23:32.021Z,14.80
2019-03-29T15:26:00.813Z,14.70
2019-03-29T15:28:29.668Z,14.60
2019-03-29T15:30:58.466Z,14.70
2019-03-29T15:33:27.306Z,14.60
2019-03-29T15:35:56.118Z,14.50
2019-03-29T15:38:24.866Z,14.60
2019-03-29T15:40:53.680Z,14.70
2019-03-29T15:43:22.614Z,14.70
2019-03-29T15:45:51.434Z,14.60
2019-03-29T15:48:21.480Z,14.70
2019-03-29T15:50:50.292Z,14.70
2019-03-29T15:53:19.006Z,14.70
2019-03-29T15:55:47.764Z,14.70
2019-03-29T15:58:16.606Z,14.60
2019-03-29T16:00:45.402Z,14.50
2019-03-29T16:03:14.242Z,14.40
2019-03-29T16:05:44.395Z,14.20
2019-03-29T16:08:13.186Z,14.20
2019-03-29T16:10:41.945Z,14.10
2019-03-29T16:13:10.833Z,14.00
2019-03-29T16:15:39.675Z,13.90
2019-03-29T16:18:08.478Z,13.80
2019-03-29T16:20:37.209Z,13.70
2019-03-29T16:23:06.004Z,13.60
2019-03-29T16:25:34.729Z,13.50
2019-03-29T16:28:03.582Z,13.50
2019-03-29T16:30:32.391Z,13.40
2019-03-29T16:33:01.185Z,13.40
2019-03-29T16:35:30.108Z,13.30
2019-03-29T16:37:58.842Z,13.20
2019-03-29T16:40:30.999Z,13.20
2019-03-29T16:42:58.279Z,13.20
2019-03-29T16:45:27.142Z,13.00
2019-03-29T16:47:56.030Z,13.10
2019-03-29T16:50:24.757Z,13.00
2019-03-29T16:52:53.617Z,12.90
2019-03-29T16:55:22.783Z,12.90
2019-03-29T16:57:51.639Z,12.90
2019-03-29T17:00:20.440Z,12.90
2019-03-29T17:02:49.283Z,13.00
2019-03-29T17:05:18.367Z,12.90
2019-03-29T17:07:47.169Z,12.90
2019-03-29T17:10:16.521Z,12.90
2019-03-29T17:12:45.400Z,12.90
2019-03-29T17:15:14.237Z,12.90
2019-03-29T17:17:43.180Z,12.80
2019-03-29T17:20:12.098Z,12.80
2019-03-29T17:22:43.296Z,12.80
2019-03-29T17:25:11.704Z,12.70
2019-03-29T17:27:40.439Z,12.70
2019-03-29T17:30:10.338Z,12.70
2019-03-29T17:32:39.183Z,12.70
2019-03-29T17:35:07.985Z,12.80
2019-03-29T17:37:37.186Z,12.70
2019-03-29T17:40:08.007Z,12.70
2019-03-29T17:42:36.954Z,12.70
2019-03-29T17:45:08.010Z,12.70
2019-03-29T17:47:36.830Z,12.60
2019-03-29T17:50:06.561Z,12.50
2019-03-29T17:52:37.048Z,12.50
2019-03-29T17:55:07.192Z,12.50
2019-03-29T17:57:36.027Z,12.40
2019-03-29T18:00:06.794Z,12.50
2019-03-29T18:02:35.632Z,12.40
2019-03-29T18:05:06.883Z,12.20
2019-03-29T18:07:35.697Z,12.20
2019-03-29T18:10:08.872Z,12.10
2019-03-29T18:12:37.622Z,12.10
2019-03-29T18:15:07.952Z,12.10
2019-03-29T18:17:36.847Z,12.00
2019-03-29T18:20:08.275Z,11.90
2019-03-29T18:22:37.364Z,11.80
2019-03-29T18:25:08.398Z,11.80
2019-03-29T18:27:37.195Z,11.70
2019-03-29T18:30:11.920Z,11.60
2019-03-29T18:32:41.720Z,11.50
2019-03-29T18:35:11.365Z,11.40
2019-03-29T18:37:40.304Z,11.30
2019-03-29T18:40:14.924Z,11.20
2019-03-29T18:42:44.042Z,11.10
2019-03-29T18:45:12.948Z,11.10
2019-03-29T18:47:42.130Z,11.00
2019-03-29T18:50:10.936Z,10.90
2019-03-29T18:52:42.612Z,10.90
2019-03-29T18:55:11.979Z,10.90
2019-03-29T18:57:40.714Z,10.80
2019-03-29T19:00:10.040Z,10.80
2019-03-29T19:02:38.975Z,10.80
2019-03-29T19:05:09.680Z,10.70
2019-03-29T19:07:38.664Z,10.70
2019-03-29T19:10:07.768Z,10.60
2019-03-29T19:12:36.876Z,10.60
2019-03-29T19:15:06.808Z,10.60
2019-03-29T19:17:35.617Z,10.60
2019-03-29T19:20:10.162Z,10.50
2019-03-29T19:22:36.898Z,10.50
2019-03-29T19:25:06.672Z,10.40
2019-03-29T19:27:35.418Z,10.40
2019-03-29T19:30:06.626Z,10.40
2019-03-29T19:32:35.440Z,10.30
2019-03-29T19:35:07.582Z,10.30
2019-03-29T19:37:36.377Z,10.30
2019-03-29T19:40:07.229Z,10.30
2019-03-29T19:42:36.054Z,10.30
2019-03-29T19:45:07.377Z,10.20
2019-03-29T19:47:36.219Z,10.20
2019-03-29T19:50:06.531Z,10.20
2019-03-29T19:52:35.361Z,10.10
2019-03-29T19:55:05.473Z,10.20
2019-03-29T19:57:34.601Z,10.10
2019-03-29T20:00:06.288Z,10.10
2019-03-29T20:02:35.364Z,10.10
2019-03-29T20:05:05.189Z,10.10
2019-03-29T20:07:33.982Z,10.10
2019-03-29T20:10:02.830Z,10.10
2019-03-29T20:12:31.566Z,10.10
2019-03-29T20:15:00.494Z,10.20
2019-03-29T20:17:29.305Z,10.10
2019-03-29T20:19:58.155Z,10.10
2019-03-29T20:22:26.887Z,10.10
2019-03-29T20:24:55.736Z,10.00
2019-03-29T20:27:24.472Z,10.00
2019-03-29T20:29:53.252Z,10.00
2019-03-29T20:32:22.054Z,10.00
2019-03-29T20:34:51.191Z,9.90
2019-03-29T20:37:19.992Z,9.90
2019-03-29T20:39:49.180Z,9.90
2019-03-29T20:42:17.985Z,9.90
2019-03-29T20:44:46.908Z,9.80
2019-03-29T20:47:15.708Z,9.80
2019-03-29T20:49:44.528Z,9.80
2019-03-29T20:52:13.333Z,9.80
2019-03-29T20:54:42.158Z,9.80
2019-03-29T20:57:11.134Z,9.80
2019-03-29T20:59:39.938Z,9.80
2019-03-29T21:02:09.182Z,9.80
2019-03-29T21:04:37.974Z,9.80
2019-03-29T21:07:06.984Z,9.80
2019-03-29T21:09:35.899Z,9.80
2019-03-29T21:12:05.676Z,9.80
2019-03-29T21:14:34.850Z,9.70
2019-03-29T21:17:03.633Z,9.70
2019-03-29T21:19:33.550Z,9.70
2019-03-29T21:22:02.266Z,9.70
2019-03-29T21:24:31.102Z,9.70
2019-03-29T21:27:00.109Z,9.70
2019-03-29T21:29:29.006Z,9.70
2019-03-29T21:31:58.186Z,9.70
2019-03-29T21:34:26.986Z,9.70
2019-03-29T21:36:55.824Z,9.70
2019-03-29T21:39:24.666Z,9.60
2019-03-29T21:41:53.507Z,9.60
2019-03-29T21:44:22.318Z,9.60
2019-03-29T21:46:51.260Z,9.60
2019-03-29T21:49:20.040Z,9.60
2019-03-29T21:51:48.844Z,9.60
2019-03-29T21:54:17.671Z,9.60
2019-03-29T21:56:46.483Z,9.60
2019-03-29T21:59:15.255Z,9.50
2019-03-29T22:01:43.985Z,9.60
2019-03-29T22:04:12.823Z,9.60
2019-03-29T22:06:41.594Z,9.60
2019-03-29T22:09:10.378Z,9.60
2019-03-29T22:11:39.212Z,9.50
2019-03-29T22:14:07.943Z,9.50
2019-03-29T22:16:36.791Z,9.50
2019-03-29T22:19:05.588Z,9.40
2019-03-29T22:21:34.424Z,9.40
2019-03-29T22:24:03.255Z,9.40
2019-03-29T22:26:32.448Z,9.40
2019-03-29T22:29:01.543Z,9.40
2019-03-29T22:31:30.365Z,9.40
2019-03-29T22:34:00.358Z,9.40
2019-03-29T22:36:31.771Z,9.40
2019-03-29T22:39:27.623Z,9.40
2019-03-29T22:42:07.747Z,9.30
2019-03-29T22:44:56.571Z,9.30
